createdAt,value
2022-11-22T00:11:02.397Z,10.9
2022-11-22T02:42:18.711Z,6
2022-11-22T03:51:30.829Z,10.9
2022-11-22T03:57:21.958Z,14.6
2022-11-22T04:03:12.766Z,14.4
2022-11-22T04:09:07.014Z,12.4
2022-11-22T04:14:59.281Z,11.5
2022-11-22T04:20:50.502Z,14.3
2022-11-22T04:26:42.166Z,17.1
2022-11-22T04:32:41.865Z,13.8
2022-11-22T04:38:33.595Z,10.2
2022-11-22T04:44:26.840Z,12.3
2022-11-22T04:50:22.256Z,12.5
2022-11-22T04:56:16.512Z,12.3
2022-11-22T05:02:23.975Z,17
2022-11-22T05:08:27.242Z,13.8
2022-11-22T05:14:22.605Z,10
2022-11-22T05:20:15.564Z,12.4
2022-11-22T05:26:09.729Z,13
2022-11-22T05:32:03.654Z,12.4
2022-11-22T05:37:57.045Z,15.8
2022-11-22T05:43:54.655Z,17.5
2022-11-22T05:49:46.741Z,13.8
2022-11-22T05:55:38.769Z,16.4
2022-11-22T06:01:31.423Z,11.5
2022-11-22T06:07:24.721Z,15.5
2022-11-22T06:13:16.421Z,13.7
2022-11-22T06:19:08.392Z,12
2022-11-22T06:25:14.436Z,18.7
2022-11-22T06:31:08.925Z,13.7
2022-11-22T06:37:00.817Z,17.3
2022-11-22T06:42:55.191Z,16.1
2022-11-22T06:48:48.379Z,18.5
2022-11-22T06:54:42.817Z,18.6
2022-11-22T07:00:38.049Z,19.4
2022-11-22T07:06:29.311Z,24.3
2022-11-22T07:12:20.481Z,23.8
2022-11-22T07:18:12.669Z,23.3
2022-11-22T07:24:03.071Z,29.7
2022-11-22T07:30:01.616Z,20.1
2022-11-22T07:35:52.647Z,23.2
2022-11-22T07:41:44.182Z,15.9
2022-11-22T07:47:35.683Z,18
2022-11-22T07:53:29.643Z,18.4
2022-11-22T07:59:19.410Z,22.6
2022-11-22T08:05:14.160Z,16.7
2022-11-22T08:11:04.720Z,16.1
2022-11-22T08:16:58.923Z,14.4
2022-11-22T08:22:49.834Z,12.3
2022-11-22T08:28:42.295Z,15.1
2022-11-22T08:34:35.025Z,13.6
2022-11-22T08:40:30.354Z,10.7
2022-11-22T08:46:27.804Z,14.1
2022-11-22T08:52:22.534Z,14.6
2022-11-22T08:58:15.698Z,15.9
2022-11-22T09:04:06.771Z,12.6
2022-11-22T09:09:58.458Z,13.4
2022-11-22T09:15:49.749Z,15.4
2022-11-22T09:21:42.946Z,15.8
2022-11-22T09:27:44.279Z,14.5
2022-11-22T09:33:35.306Z,15.8
2022-11-22T09:39:25.570Z,17.7
2022-11-22T09:45:20.651Z,14.9
2022-11-22T09:52:24.382Z,15.5
2022-11-22T09:58:27.593Z,13.5
2022-11-22T10:04:39.042Z,15.2
2022-11-22T10:10:30.443Z,15
2022-11-22T10:19:00.947Z,9.8
2022-11-22T10:26:07.406Z,13.9
2022-11-22T10:33:18.395Z,16
2022-11-22T10:39:13.927Z,12.9
2022-11-22T10:45:04.537Z,13.7
2022-11-22T10:50:56.824Z,15.2
2022-11-22T10:56:48.419Z,10.4
2022-11-22T11:02:40.925Z,8.9
2022-11-22T11:10:32.484Z,9.6
2022-11-22T11:16:23.641Z,11.9
2022-11-22T11:22:14.329Z,9.3
2022-11-22T11:28:06.776Z,7.2
2022-11-22T11:34:05.090Z,8.2
2022-11-22T11:39:55.315Z,9.5
2022-11-22T11:45:48.022Z,8.4
2022-11-22T11:51:38.956Z,9.6
2022-11-22T11:57:31.506Z,11.8
2022-11-22T12:03:23.264Z,9
2022-11-22T12:09:13.775Z,7.8
2022-11-22T12:15:17.635Z,10.3
2022-11-22T12:21:07.610Z,9.9
2022-11-22T12:26:57.674Z,6.2
2022-11-22T12:32:46.893Z,5.5
2022-11-22T12:38:37.714Z,5.8
2022-11-22T12:44:30.294Z,4.3
2022-11-22T12:50:21.256Z,5.6
2022-11-22T12:56:11.409Z,5.7
2022-11-22T13:02:01.761Z,2.3
2022-11-22T13:07:54.138Z,4.5
2022-11-22T13:13:44.078Z,7.5
2022-11-22T13:19:35.478Z,4.9
2022-11-22T13:25:25.271Z,9.4
2022-11-22T13:31:18.887Z,4.8
2022-11-22T13:37:08.994Z,7.1
2022-11-22T13:42:58.427Z,4.4
2022-11-22T13:48:48.414Z,8.3
2022-11-22T13:54:39.285Z,4.7
2022-11-22T14:00:28.690Z,4.1
2022-11-22T14:06:18.397Z,6.8
2022-11-22T14:12:08.672Z,3.5
2022-11-22T14:17:57.761Z,4.2
2022-11-22T14:26:06.394Z,5.4
2022-11-22T14:33:03.936Z,1.4
2022-11-22T14:38:51.796Z,1
2022-11-22T14:44:41.536Z,1.8
2022-11-22T14:50:31.508Z,4.3
2022-11-22T14:56:21.901Z,1.5
2022-11-22T15:02:13.656Z,3.5
2022-11-22T15:09:57.410Z,3.6
2022-11-22T15:57:22.724Z,1.9
2022-11-22T16:03:09.981Z,2.6
2022-11-22T16:08:59.240Z,1.5
2022-11-22T16:14:49.830Z,1.5
2022-11-22T16:20:40.157Z,2.3
2022-11-22T16:26:32.391Z,1.4
2022-11-22T16:32:22.912Z,1.6
2022-11-22T16:38:13.852Z,2
2022-11-22T16:44:03.306Z,1.9
2022-11-22T16:49:53.638Z,1.7
2022-11-22T16:55:44.133Z,2
2022-11-22T17:01:34.394Z,2.5
2022-11-22T17:07:25.496Z,2.3
2022-11-22T17:13:16.012Z,2.5
2022-11-22T17:19:08.667Z,2.6
2022-11-22T17:25:32.572Z,2.5
2022-11-22T17:31:23.774Z,1.9
2022-11-22T17:37:13.694Z,3.2
2022-11-22T17:43:04.659Z,3.3
2022-11-22T17:48:54.490Z,3.5
2022-11-22T17:56:26.090Z,3
2022-11-22T18:03:23.440Z,3.6
2022-11-22T18:13:25.644Z,3.9
2022-11-22T18:19:12.555Z,3.3
2022-11-22T18:25:06.545Z,2.4
2022-11-22T18:30:56.447Z,3.1
2022-11-22T18:37:56.342Z,3.2
2022-11-22T18:44:55.286Z,4
2022-11-22T18:51:55.348Z,4.2
2022-11-22T19:02:25.320Z,3.4
2022-11-22T19:08:12.847Z,4.2
2022-11-22T19:15:10.737Z,5
2022-11-22T19:21:02.326Z,5
2022-11-22T19:28:03.044Z,4.3
2022-11-22T19:37:22.748Z,5.1
2022-11-22T19:43:16.311Z,4.8
2022-11-22T19:50:15.037Z,5.1
2022-11-22T19:56:05.581Z,5.8
2022-11-22T20:01:59.707Z,4.8
2022-11-22T20:07:49.562Z,5.6
2022-11-22T20:18:25.319Z,7
2022-11-22T20:24:12.306Z,9.3
2022-11-22T20:30:02.098Z,9.1
2022-11-22T20:35:53.502Z,12
2022-11-22T20:41:44.304Z,10.5
2022-11-22T20:49:52.505Z,10.9
2022-11-22T20:55:39.917Z,13.4
2022-11-22T21:01:30.430Z,9.6
2022-11-22T21:07:21.289Z,15.5
2022-11-22T21:13:11.593Z,11.8
2022-11-22T21:19:02.501Z,12.1
2022-11-22T21:24:54.777Z,14.7
2022-11-22T21:30:46.044Z,13.9
2022-11-22T21:36:37.389Z,16.1
2022-11-22T21:42:32.114Z,15.3
2022-11-22T21:49:31.709Z,18.4
2022-11-22T21:55:20.693Z,14.8
2022-11-22T22:01:18.728Z,20
2022-11-22T22:13:49.602Z,16
2022-11-22T22:19:39.837Z,17.2
2022-11-22T22:25:31.298Z,14.6
2022-11-22T22:31:22.797Z,15.6
2022-11-22T22:37:13.449Z,15.2
2022-11-22T22:43:03.310Z,10.8
2022-11-22T22:48:53.907Z,15.4
2022-11-22T22:54:44.851Z,12.1
2022-11-22T23:00:35.963Z,11
2022-11-22T23:06:25.829Z,9.8
2022-11-22T23:12:17.628Z,13.4
2022-11-22T23:18:08.751Z,9.5
2022-11-22T23:23:59.507Z,12
2022-11-22T23:29:49.626Z,11.8
2022-11-22T23:35:41.244Z,9.5
2022-11-22T23:41:31.704Z,10.1
2022-11-22T23:47:22.374Z,8.7
2022-11-22T23:53:12.816Z,8.1
2022-11-22T23:59:06.065Z,8.2
